createdAt,value
2022-10-03T00:01:20.941Z,92.19
2022-10-03T00:04:01.588Z,91.89
2022-10-03T00:06:32.129Z,92.51
2022-10-03T00:09:09.348Z,92.78
2022-10-03T00:11:49.114Z,92.71
2022-10-03T00:14:40.408Z,92.77
2022-10-03T00:17:14.484Z,92.61
2022-10-03T00:20:14.917Z,93.15
2022-10-03T00:22:46.582Z,93.40
2022-10-03T00:25:27.859Z,93.55
2022-10-03T00:28:06.439Z,93.47
2022-10-03T00:30:49.688Z,93.30
2022-10-03T00:33:39.345Z,93.69
2022-10-03T00:36:21.533Z,93.66
2022-10-03T00:39:03.100Z,93.60
2022-10-03T00:41:40.277Z,93.99
2022-10-03T00:44:34.212Z,94.25
2022-10-03T00:47:25.607Z,94.24
2022-10-03T00:50:07.097Z,94.32
2022-10-03T00:53:11.123Z,94.30
2022-10-03T00:55:53.093Z,94.57
2022-10-03T00:58:33.915Z,95.03
2022-10-03T01:01:21.309Z,95.16
2022-10-03T01:03:59.452Z,94.87
2022-10-03T01:06:36.787Z,94.85
2022-10-03T01:09:23.225Z,95.20
2022-10-03T01:12:11.636Z,95.38
2022-10-03T01:15:16.613Z,95.24
2022-10-03T01:18:17.944Z,95.40
2022-10-03T01:20:47.260Z,95.49
2022-10-03T01:23:37.233Z,95.40
2022-10-03T01:26:34.247Z,95.56
2022-10-03T01:29:28.724Z,95.70
2022-10-03T01:32:07.183Z,95.80
2022-10-03T01:34:40.319Z,95.84
2022-10-03T01:37:27.924Z,95.87
2022-10-03T01:40:04.964Z,95.89
2022-10-03T01:43:05.558Z,95.97
2022-10-03T01:46:18.021Z,96.01
2022-10-03T01:49:01.613Z,96.33
2022-10-03T01:51:43.720Z,96.92
2022-10-03T01:54:29.353Z,97.41
2022-10-03T01:57:03.221Z,97.97
2022-10-03T01:59:29.521Z,98.11
2022-10-03T02:02:04.264Z,98.46
2022-10-03T02:04:52.626Z,98.52
2022-10-03T02:07:43.801Z,98.18
2022-10-03T02:10:28.524Z,98.03
2022-10-03T02:13:14.868Z,97.95
2022-10-03T02:15:56.437Z,97.66
2022-10-03T02:18:47.843Z,97.72
2022-10-03T02:21:22.923Z,97.50
2022-10-03T02:23:52.865Z,97.85
2022-10-03T02:26:47.506Z,97.87
2022-10-03T02:29:42.707Z,97.75
2022-10-03T02:32:37.048Z,97.91
2022-10-03T02:35:18.893Z,97.72
2022-10-03T02:38:19.350Z,97.91
2022-10-03T02:41:08.918Z,97.96
2022-10-03T02:44:02.636Z,98.12
2022-10-03T02:46:54.305Z,97.98
2022-10-03T02:49:55.229Z,98.04
2022-10-03T02:52:37.949Z,98.07
2022-10-03T02:55:27.976Z,98.19
2022-10-03T02:58:31.253Z,98.02
2022-10-03T03:01:38.923Z,98.25
2022-10-03T03:04:23.693Z,98.15
2022-10-03T03:06:53.098Z,98.38
2022-10-03T03:09:52.280Z,98.41
2022-10-03T03:12:44.278Z,98.65
2022-10-03T03:15:48.445Z,98.65
2022-10-03T03:18:29.470Z,98.75
2022-10-03T03:21:14.436Z,98.94
2022-10-03T03:23:54.558Z,98.89
2022-10-03T03:26:33.146Z,98.77
2022-10-03T03:29:14.758Z,99.02
2022-10-03T03:31:54.527Z,99.16
2022-10-03T03:34:43.020Z,98.74
2022-10-03T03:37:12.225Z,98.84
2022-10-03T03:39:50.713Z,98.60
2022-10-03T03:42:42.155Z,98.37
2022-10-03T03:45:18.724Z,98.65
2022-10-03T03:48:12.139Z,98.79
2022-10-03T03:51:15.832Z,98.71
2022-10-03T03:54:19.637Z,98.90
2022-10-03T03:57:04.657Z,99.00
2022-10-03T03:59:58.957Z,99.09
2022-10-03T04:02:44.071Z,99.19
2022-10-03T04:05:54.943Z,99.22
2022-10-03T04:08:36.130Z,99.23
2022-10-03T04:11:12.266Z,99.24
2022-10-03T04:14:07.885Z,99.43
2022-10-03T04:17:01.707Z,99.27
2022-10-03T04:19:48.680Z,99.29
2022-10-03T04:22:22.169Z,99.37
2022-10-03T04:25:17.924Z,99.31
2022-10-03T04:27:50.781Z,99.06
2022-10-03T04:30:58.201Z,99.17
2022-10-03T04:33:27.831Z,99.49
2022-10-03T04:36:31.849Z,99.63
2022-10-03T04:39:25.337Z,99.37
2022-10-03T04:42:09.122Z,99.27
2022-10-03T04:44:46.101Z,98.98
2022-10-03T04:47:32.855Z,98.93
2022-10-03T04:50:11.326Z,98.85
2022-10-03T04:53:04.872Z,98.89
2022-10-03T04:55:48.262Z,98.77
2022-10-03T04:58:28.625Z,98.70
2022-10-03T05:01:29.769Z,98.42
2022-10-03T05:04:02.268Z,98.15
2022-10-03T05:06:35.271Z,98.24
2022-10-03T05:09:07.327Z,98.13
2022-10-03T05:11:45.504Z,98.31
2022-10-03T05:14:24.452Z,98.41
2022-10-03T05:17:11.358Z,98.67
2022-10-03T05:20:13.506Z,99.09
2022-10-03T05:23:03.104Z,99.23
2022-10-03T05:25:39.925Z,99.12
2022-10-03T05:28:15.470Z,99.03
2022-10-03T05:30:46.218Z,98.75
2022-10-03T05:33:54.182Z,98.95
2022-10-03T05:36:29.620Z,98.87
2022-10-03T05:39:33.523Z,98.54
2022-10-03T05:42:24.864Z,98.08
2022-10-03T05:45:04.891Z,97.88
2022-10-03T05:47:45.228Z,97.33
2022-10-03T05:50:57.716Z,97.52
2022-10-03T05:53:47.291Z,97.12
2022-10-03T05:56:31.667Z,97.16
2022-10-03T05:59:29.061Z,97.33
2022-10-03T06:01:59.265Z,97.21
2022-10-03T06:04:53.460Z,97.92
2022-10-03T06:07:23.787Z,97.67
2022-10-03T06:10:33.812Z,97.98
2022-10-03T06:13:11.379Z,98.33
2022-10-03T06:15:54.286Z,97.93
2022-10-03T06:18:37.451Z,97.17
2022-10-03T06:21:13.485Z,96.45
2022-10-03T06:24:05.048Z,95.94
2022-10-03T06:27:00.907Z,95.61
2022-10-03T06:29:59.978Z,95.14
2022-10-03T06:33:00.328Z,94.85
2022-10-03T06:35:32.924Z,94.64
2022-10-03T06:38:37.015Z,94.63
2022-10-03T06:41:30.553Z,94.49
2022-10-03T06:44:15.468Z,94.77
2022-10-03T06:47:03.608Z,94.45
2022-10-03T06:50:09.871Z,94.53
2022-10-03T06:52:49.102Z,94.49
2022-10-03T06:55:33.727Z,94.45
2022-10-03T06:58:31.115Z,94.32
2022-10-03T07:01:12.853Z,94.56
2022-10-03T07:04:10.816Z,94.61
2022-10-03T07:07:00.626Z,94.24
2022-10-03T07:09:55.101Z,93.81
2022-10-03T07:12:57.687Z,93.17
2022-10-03T07:16:25.452Z,93.63
2022-10-03T07:19:15.337Z,91.58
2022-10-03T07:22:08.237Z,91.19
2022-10-03T07:24:37.005Z,90.89
2022-10-03T07:27:08.778Z,90.66
2022-10-03T07:30:29.369Z,90.35
2022-10-03T07:33:49.866Z,89.59
2022-10-03T07:36:42.066Z,90.08
2022-10-03T07:39:26.074Z,90.06
2022-10-03T07:42:13.778Z,89.77
2022-10-03T07:45:02.185Z,89.45
2022-10-03T07:47:46.712Z,89.81
2022-10-03T07:50:41.141Z,89.97
2022-10-03T07:53:53.694Z,90.19
2022-10-03T07:56:35.236Z,90.01
2022-10-03T07:59:13.636Z,89.38
2022-10-03T08:02:01.948Z,88.64
2022-10-03T08:04:46.604Z,88.74
2022-10-03T08:07:28.540Z,88.85
2022-10-03T08:10:08.870Z,88.41
2022-10-03T08:13:02.557Z,88.11
2022-10-03T08:15:45.536Z,87.97
2022-10-03T08:18:36.308Z,87.79
2022-10-03T08:21:04.828Z,87.19
2022-10-03T08:23:50.129Z,86.63
2022-10-03T08:26:31.029Z,86.60
2022-10-03T08:29:21.866Z,86.83
2022-10-03T08:32:16.402Z,86.42
2022-10-03T08:34:58.082Z,86.42
2022-10-03T08:37:36.497Z,86.59
2022-10-03T08:40:40.112Z,86.33
2022-10-03T08:43:17.720Z,85.83
2022-10-03T08:46:12.838Z,85.22
2022-10-03T08:49:00.990Z,84.99
2022-10-03T08:51:51.664Z,85.38
2022-10-03T08:54:37.005Z,84.95
2022-10-03T08:57:21.897Z,83.83
2022-10-03T09:00:04.012Z,83.81
2022-10-03T09:03:02.139Z,83.83
2022-10-03T09:05:41.401Z,83.14
2022-10-03T09:08:35.705Z,81.61
2022-10-03T09:11:28.594Z,81.00
2022-10-03T09:14:31.819Z,80.63
2022-10-03T09:17:06.364Z,79.68
2022-10-03T09:20:08.131Z,80.05
2022-10-03T09:23:08.117Z,78.81
2022-10-03T09:26:04.186Z,77.94
2022-10-03T09:28:37.933Z,77.40
2022-10-03T09:31:32.693Z,77.78
2022-10-03T09:34:18.951Z,77.37
2022-10-03T09:37:03.578Z,77.63
2022-10-03T09:39:59.173Z,76.10
2022-10-03T09:42:38.190Z,75.51
2022-10-03T09:45:13.719Z,75.59
2022-10-03T09:47:58.806Z,75.48
2022-10-03T09:50:46.961Z,75.20
2022-10-03T09:53:47.345Z,75.68
2022-10-03T09:56:25.657Z,76.36
2022-10-03T09:59:23.162Z,76.33
2022-10-03T10:02:14.943Z,75.75
2022-10-03T10:04:55.941Z,74.24
2022-10-03T10:08:08.044Z,74.79
2022-10-03T10:10:47.612Z,74.23
2022-10-03T10:14:06.787Z,72.69
2022-10-03T10:16:48.077Z,72.77
2022-10-03T10:19:39.007Z,72.64
2022-10-03T10:22:40.388Z,70.13
2022-10-03T10:25:29.754Z,69.82
2022-10-03T10:28:11.506Z,70.39
2022-10-03T10:31:15.480Z,69.56
2022-10-03T10:33:51.035Z,69.99
2022-10-03T10:36:39.789Z,69.75
2022-10-03T10:39:59.043Z,70.40
2022-10-03T10:43:03.441Z,70.60
2022-10-03T10:45:41.935Z,70.49
2022-10-03T10:48:38.398Z,70.18
2022-10-03T10:51:26.302Z,69.94
2022-10-03T10:54:20.090Z,69.94
2022-10-03T10:57:22.535Z,71.21
2022-10-03T11:00:26.904Z,71.25
2022-10-03T11:03:24.019Z,71.89
2022-10-03T11:06:06.812Z,71.79
2022-10-03T11:09:00.652Z,71.67
2022-10-03T11:11:45.806Z,71.70
2022-10-03T11:14:50.494Z,71.37
2022-10-03T11:17:25.600Z,70.31
2022-10-03T11:20:29.504Z,69.81
2022-10-03T11:23:29.197Z,70.74
2022-10-03T11:26:18.220Z,70.40
2022-10-03T11:29:09.766Z,69.03
2022-10-03T11:32:17.822Z,69.15
2022-10-03T11:35:05.442Z,69.26
2022-10-03T11:37:50.472Z,69.49
2022-10-03T11:40:22.962Z,68.43
2022-10-03T11:43:35.449Z,69.37
2022-10-03T11:46:14.026Z,68.82
2022-10-03T11:48:54.180Z,69.01
2022-10-03T11:51:29.597Z,69.42
2022-10-03T11:54:31.941Z,70.19
2022-10-03T11:57:09.849Z,70.66
2022-10-03T11:59:49.822Z,72.53
2022-10-03T12:02:55.785Z,72.58
2022-10-03T12:05:37.458Z,72.15
2022-10-03T12:08:48.462Z,72.71
2022-10-03T12:11:24.301Z,72.38
2022-10-03T12:14:11.530Z,72.89
2022-10-03T12:16:38.167Z,72.68
2022-10-03T12:19:30.746Z,71.22
2022-10-03T12:22:34.655Z,71.41
2022-10-03T12:25:17.232Z,71.02
2022-10-03T12:28:06.085Z,70.44
2022-10-03T12:30:41.315Z,68.65
2022-10-03T12:33:40.888Z,68.92
2022-10-03T12:36:15.363Z,67.92
2022-10-03T12:38:55.121Z,67.49
2022-10-03T12:41:31.794Z,66.36
2022-10-03T12:44:28.333Z,65.87
2022-10-03T12:47:10.719Z,65.90
2022-10-03T12:49:53.116Z,65.71
2022-10-03T12:52:37.575Z,66.48
2022-10-03T12:55:24.902Z,67.74
2022-10-03T12:57:59.042Z,69.05
2022-10-03T13:00:46.102Z,73.51
2022-10-03T13:03:20.616Z,75.85
2022-10-03T13:06:07.344Z,76.80
2022-10-03T13:08:43.263Z,77.43
2022-10-03T13:11:30.896Z,77.85
2022-10-03T13:14:09.510Z,76.90
2022-10-03T13:16:50.414Z,77.50
2022-10-03T13:19:19.935Z,77.74
2022-10-03T13:22:03.222Z,77.01
2022-10-03T13:24:35.411Z,74.67
2022-10-03T13:27:19.956Z,73.37
2022-10-03T13:29:47.141Z,73.34
2022-10-03T13:32:28.534Z,73.21
2022-10-03T13:35:23.221Z,72.41
2022-10-03T13:38:34.839Z,73.54
2022-10-03T13:41:26.189Z,71.59
2022-10-03T13:44:17.735Z,71.07
2022-10-03T13:46:53.480Z,71.69
2022-10-03T13:49:34.297Z,71.36
2022-10-03T13:52:23.487Z,71.99
2022-10-03T13:55:14.102Z,71.49
2022-10-03T13:58:35.566Z,69.23
2022-10-03T14:01:13.389Z,69.32
2022-10-03T14:04:01.346Z,69.32
2022-10-03T14:06:42.360Z,69.65
2022-10-03T14:09:33.093Z,69.64
2022-10-03T14:12:09.457Z,69.30
2022-10-03T14:14:55.868Z,69.45
2022-10-03T14:17:59.994Z,70.78
2022-10-03T14:20:35.687Z,72.26
2022-10-03T14:23:22.069Z,74.05
2022-10-03T14:26:24.920Z,74.61
2022-10-03T14:29:04.560Z,72.94
2022-10-03T14:31:51.428Z,72.79
2022-10-03T14:34:26.987Z,72.85
2022-10-03T14:37:04.456Z,75.67
2022-10-03T14:39:49.423Z,80.51
2022-10-03T14:42:27.820Z,82.27
2022-10-03T14:44:56.839Z,83.37
2022-10-03T14:47:23.995Z,83.52
2022-10-03T14:49:59.207Z,82.92
2022-10-03T14:52:32.088Z,83.08
2022-10-03T14:55:07.233Z,83.13
2022-10-03T14:57:47.868Z,82.54
2022-10-03T15:00:25.809Z,82.28
2022-10-03T15:02:52.396Z,81.25
2022-10-03T15:05:35.015Z,80.82
2022-10-03T15:08:03.649Z,80.09
2022-10-03T15:10:31.220Z,79.84
2022-10-03T15:13:06.980Z,79.57
2022-10-03T15:15:39.098Z,79.98
2022-10-03T15:18:07.314Z,80.00
2022-10-03T15:20:39.633Z,79.94
2022-10-03T15:23:08.128Z,79.50
2022-10-03T15:25:42.078Z,80.17
2022-10-03T15:28:30.836Z,80.27
2022-10-03T15:31:08.535Z,80.14
2022-10-03T15:33:37.494Z,80.36
2022-10-03T15:36:14.679Z,80.79
2022-10-03T15:38:43.357Z,80.48
2022-10-03T15:41:16.560Z,80.43
2022-10-03T15:43:54.388Z,80.11
2022-10-03T15:46:47.043Z,79.75
2022-10-03T15:49:24.371Z,79.88
2022-10-03T15:51:52.315Z,80.06
2022-10-03T15:54:23.823Z,80.41
2022-10-03T15:56:55.102Z,80.41
2022-10-03T15:59:43.528Z,80.54
2022-10-03T16:02:21.017Z,80.74
2022-10-03T16:04:48.332Z,80.76
2022-10-03T16:07:31.795Z,81.03
2022-10-03T16:10:27.657Z,81.40
2022-10-03T16:13:10.296Z,81.55
2022-10-03T16:15:52.058Z,81.95
2022-10-03T16:18:18.402Z,81.83
2022-10-03T16:20:54.075Z,81.46
2022-10-03T16:23:23.455Z,81.05
2022-10-03T16:26:07.622Z,80.88
2022-10-03T16:28:42.212Z,80.54
2022-10-03T16:31:21.899Z,80.47
2022-10-03T16:33:58.295Z,80.37
2022-10-03T16:36:25.603Z,80.60
2022-10-03T16:39:02.264Z,80.71
2022-10-03T16:41:34.246Z,80.60
2022-10-03T16:44:09.838Z,80.79
2022-10-03T16:46:38.746Z,80.74
2022-10-03T16:49:43.469Z,81.13
2022-10-03T16:52:12.796Z,81.38
2022-10-03T16:54:40.984Z,81.93
2022-10-03T16:57:21.744Z,81.99
2022-10-03T16:59:51.962Z,81.95
2022-10-03T17:02:21.459Z,82.57
2022-10-03T17:04:50.461Z,82.39
2022-10-03T17:07:24.685Z,82.60
2022-10-03T17:09:52.325Z,82.65
2022-10-03T17:12:46.105Z,82.57
2022-10-03T17:15:20.692Z,82.55
2022-10-03T17:17:50.008Z,82.63
2022-10-03T17:20:34.635Z,82.89
2022-10-03T17:23:04.266Z,82.88
2022-10-03T17:25:50.332Z,83.14
2022-10-03T17:28:37.738Z,83.21
2022-10-03T17:31:06.724Z,83.48
2022-10-03T17:33:35.929Z,83.69
2022-10-03T17:36:27.886Z,83.48
2022-10-03T17:39:05.463Z,83.44
2022-10-03T17:41:44.392Z,83.60
2022-10-03T17:44:29.065Z,83.45
2022-10-03T17:47:17.553Z,83.53
2022-10-03T17:49:58.883Z,83.52
2022-10-03T17:52:25.883Z,83.43
2022-10-03T17:54:58.286Z,83.36
2022-10-03T17:57:55.018Z,83.20
2022-10-03T18:00:22.758Z,83.20
2022-10-03T18:03:11.078Z,83.16
2022-10-03T18:05:43.899Z,83.18
2022-10-03T18:08:18.322Z,83.48
2022-10-03T18:10:50.398Z,83.43
2022-10-03T18:13:26.638Z,83.29
2022-10-03T18:16:18.082Z,83.23
2022-10-03T18:19:06.035Z,83.09
2022-10-03T18:21:50.382Z,83.24
2022-10-03T18:24:49.288Z,83.19
2022-10-03T18:27:40.821Z,83.19
2022-10-03T18:30:17.501Z,83.13
2022-10-03T18:32:45.766Z,83.28
2022-10-03T18:35:23.532Z,83.27
2022-10-03T18:38:06.023Z,82.81
2022-10-03T18:40:42.357Z,82.63
2022-10-03T18:43:26.110Z,82.88
2022-10-03T18:46:00.750Z,82.73
2022-10-03T18:49:15.775Z,82.74
2022-10-03T18:52:03.158Z,82.87
2022-10-03T18:54:48.295Z,82.65
2022-10-03T18:57:20.812Z,82.64
2022-10-03T18:59:57.942Z,82.72
2022-10-03T19:02:49.430Z,82.47
2022-10-03T19:05:20.920Z,82.70
2022-10-03T19:07:52.254Z,82.80
2022-10-03T19:10:24.693Z,82.75
2022-10-03T19:13:00.876Z,82.55
2022-10-03T19:16:09.250Z,82.72
2022-10-03T19:18:59.989Z,82.52
2022-10-03T19:21:27.213Z,82.14
2022-10-03T19:24:05.378Z,82.14
2022-10-03T19:26:36.318Z,82.09
2022-10-03T19:29:23.837Z,82.31
2022-10-03T19:31:50.191Z,82.25
2022-10-03T19:34:27.283Z,82.27
2022-10-03T19:36:55.312Z,82.30
2022-10-03T19:39:22.098Z,82.46
2022-10-03T19:41:58.525Z,82.45
2022-10-03T19:44:27.007Z,82.63
2022-10-03T19:47:15.463Z,82.85
2022-10-03T19:49:47.419Z,82.71
2022-10-03T19:52:25.655Z,82.55
2022-10-03T19:54:58.939Z,82.50
2022-10-03T19:57:27.549Z,82.45
2022-10-03T20:00:01.931Z,82.10
2022-10-03T20:02:29.197Z,82.00
2022-10-03T20:04:57.482Z,82.02
2022-10-03T20:07:33.894Z,82.09
2022-10-03T20:10:10.581Z,82.00
2022-10-03T20:12:43.433Z,82.11
2022-10-03T20:15:28.450Z,82.14
2022-10-03T20:18:01.358Z,82.28
2022-10-03T20:20:29.317Z,82.32
2022-10-03T20:23:02.457Z,82.24
2022-10-03T20:25:36.236Z,82.28
2022-10-03T20:28:05.737Z,82.07
2022-10-03T20:30:58.645Z,82.37
2022-10-03T20:33:29.797Z,82.26
2022-10-03T20:36:06.553Z,82.34
2022-10-03T20:38:48.108Z,82.30
2022-10-03T20:41:19.785Z,82.28
2022-10-03T20:43:55.628Z,82.41
2022-10-03T20:46:22.118Z,82.24
2022-10-03T20:49:07.840Z,82.43
2022-10-03T20:51:58.900Z,82.58
2022-10-03T20:54:30.203Z,82.61
2022-10-03T20:56:58.959Z,83.17
2022-10-03T20:59:44.020Z,83.07
2022-10-03T21:02:23.575Z,83.30
2022-10-03T21:05:06.085Z,82.89
2022-10-03T21:07:37.226Z,83.12
2022-10-03T21:10:10.115Z,83.31
2022-10-03T21:12:51.819Z,83.16
2022-10-03T21:15:38.092Z,83.12
2022-10-03T21:18:05.419Z,82.99
2022-10-03T21:20:38.191Z,83.01
2022-10-03T21:23:13.700Z,83.24
2022-10-03T21:25:41.463Z,83.52
2022-10-03T21:28:22.725Z,83.37
2022-10-03T21:31:04.399Z,83.50
2022-10-03T21:33:53.523Z,83.62
2022-10-03T21:36:26.816Z,83.93
2022-10-03T21:38:58.506Z,83.87
2022-10-03T21:41:32.036Z,83.87
2022-10-03T21:44:01.373Z,83.87
2022-10-03T21:46:52.913Z,84.11
2022-10-03T21:49:34.605Z,83.83
2022-10-03T21:52:06.966Z,83.89
2022-10-03T21:54:44.499Z,83.94
2022-10-03T21:57:40.213Z,83.95
2022-10-03T22:00:15.957Z,84.05
2022-10-03T22:03:03.739Z,83.99
2022-10-03T22:05:36.219Z,84.00
2022-10-03T22:08:38.996Z,84.53
2022-10-03T22:11:13.943Z,84.33
2022-10-03T22:13:43.806Z,84.58
2022-10-03T22:16:44.690Z,84.81
2022-10-03T22:19:20.190Z,84.74
2022-10-03T22:22:15.892Z,84.86
2022-10-03T22:25:01.119Z,84.96
2022-10-03T22:28:00.294Z,85.25
2022-10-03T22:30:28.461Z,85.42
2022-10-03T22:33:10.692Z,85.59
2022-10-03T22:35:48.522Z,85.28
2022-10-03T22:38:16.610Z,85.72
2022-10-03T22:40:43.355Z,85.79
2022-10-03T22:43:10.464Z,85.66
2022-10-03T22:45:41.013Z,86.08
2022-10-03T22:48:13.135Z,85.98
2022-10-03T22:50:41.722Z,86.02
2022-10-03T22:53:15.564Z,86.23
2022-10-03T22:55:45.305Z,86.18
2022-10-03T22:58:12.322Z,86.18
2022-10-03T23:00:40.263Z,86.13
2022-10-03T23:03:09.268Z,86.27
2022-10-03T23:05:56.958Z,86.02
2022-10-03T23:08:40.120Z,86.01
2022-10-03T23:11:24.366Z,86.05
2022-10-03T23:13:50.798Z,85.97
2022-10-03T23:16:38.311Z,85.98
2022-10-03T23:19:29.819Z,85.72
2022-10-03T23:21:57.194Z,85.79
2022-10-03T23:24:24.202Z,85.85
2022-10-03T23:27:13.220Z,85.79
2022-10-03T23:29:40.072Z,85.78
2022-10-03T23:32:07.849Z,85.75
2022-10-03T23:34:37.211Z,85.65
2022-10-03T23:37:15.686Z,85.59
2022-10-03T23:39:44.753Z,85.77
2022-10-03T23:42:28.866Z,85.67
2022-10-03T23:44:58.091Z,85.68
2022-10-03T23:47:34.355Z,85.64
2022-10-03T23:50:02.915Z,85.62
2022-10-03T23:52:39.500Z,85.56
2022-10-03T23:55:08.045Z,85.76
2022-10-03T23:57:36.504Z,85.73
